Time;durP1;ratioP1;P1;durP2;ratioP2;P2;SDS_P1;SDS_P2;PMS_P1;PMS_P2;Temp;Humidity;BMP_temperature;BMP_pressure;BME280_temperature;BME280_humidity;BME280_pressure;Samples;Min_cycle;Max_cycle;Signal;HPM_P1;HPM_P2
2021/01/15 00:02:35;;;;;;;24.03;7.43;;;;;;;;;;5102952;28;20558;-78
2021/01/15 00:05:39;;;;;;;18.73;6.83;;;;;;;;;;5101463;28;20604;-78
2021/01/15 00:08:45;;;;;;;22.57;6.83;;;;;;;;;;5105414;28;20354;-77
2021/01/15 00:11:50;;;;;;;19.17;7.50;;;;;;;;;;5105245;28;20773;-78
2021/01/15 00:14:54;;;;;;;17.47;7.33;;;;;;;;;;5100628;28;20670;-77
2021/01/15 00:17:59;;;;;;;22.60;7.20;;;;;;;;;;5113992;28;20209;-77
2021/01/15 00:21:03;;;;;;;16.73;6.43;;;;;;;;;;5100279;28;20203;-78
2021/01/15 00:24:09;;;;;;;16.27;6.17;;;;;;;;;;5101221;28;20289;-78
2021/01/15 00:27:14;;;;;;;16.50;7.00;;;;;;;;;;5100900;28;20212;-77
2021/01/15 00:30:19;;;;;;;20.03;7.50;;;;;;;;;;5100229;28;20200;-78
2021/01/15 00:33:23;;;;;;;18.07;6.87;;;;;;;;;;5100447;28;20700;-78
2021/01/15 00:36:28;;;;;;;23.90;7.57;;;;;;;;;;5101169;28;20705;-78
2021/01/15 00:39:34;;;;;;;15.57;6.63;;;;;;;;;;5100407;28;20714;-79
2021/01/15 00:42:38;;;;;;;19.33;6.67;;;;;;;;;;5100169;28;20266;-79
2021/01/15 00:45:43;;;;;;;14.07;6.23;;;;;;;;;;5099925;28;20205;-79
2021/01/15 00:48:52;;;;;;;21.00;7.77;;;;;;;;;;5100519;28;20213;-78
2021/01/15 00:51:57;;;;;;;20.43;7.07;;;;;;;;;;5099932;28;20602;-78
2021/01/15 00:55:08;;;;;;;17.10;6.93;;;;;;;;;;5099826;28;20189;-78
2021/01/15 00:58:13;;;;;;;19.50;7.23;;;;;;;;;;5112520;28;20680;-78
2021/01/15 01:01:19;;;;;;;17.00;6.60;;;;;;;;;;5100505;28;20224;-78
2021/01/15 01:04:28;;;;;;;18.47;6.10;;;;;;;;;;5100192;28;20208;-79
2021/01/15 01:07:33;;;;;;;15.47;6.27;;;;;;;;;;5100169;28;20197;-78
2021/01/15 01:10:38;;;;;;;17.93;6.53;;;;;;;;;;5099608;28;20200;-79
2021/01/15 01:13:43;;;;;;;19.40;6.33;;;;;;;;;;5099916;28;20285;-78
2021/01/15 01:16:48;;;;;;;18.33;6.90;;;;;;;;;;5099740;28;20255;-78
2021/01/15 01:19:52;;;;;;;15.90;6.03;;;;;;;;;;5099640;28;20209;-78
2021/01/15 01:22:57;;;;;;;15.23;6.23;;;;;;;;;;5099478;28;20234;-78
2021/01/15 01:26:02;;;;;;;17.37;7.67;;;;;;;;;;5100061;28;20710;-78
2021/01/15 01:29:07;;;;;;;18.17;6.93;;;;;;;;;;5099498;28;20236;-78
2021/01/15 01:32:11;;;;;;;15.30;6.90;;;;;;;;;;5099914;28;20263;-78
2021/01/15 01:35:16;;;;;;;19.57;6.90;;;;;;;;;;5099403;28;20285;-79
2021/01/15 01:38:21;;;;;;;20.77;6.40;;;;;;;;;;5120503;28;20204;-79
2021/01/15 01:41:28;;;;;;;16.80;6.73;;;;;;;;;;5104086;28;20232;-78
2021/01/15 01:44:32;;;;;;;15.67;6.80;;;;;;;;;;5113161;28;20228;-79
2021/01/15 01:47:37;;;;;;;18.60;6.77;;;;;;;;;;5099446;28;20208;-78
2021/01/15 01:50:41;;;;;;;13.77;6.20;;;;;;;;;;5100303;28;20204;-78
2021/01/15 01:53:46;;;;;;;14.53;5.90;;;;;;;;;;5100707;28;20279;-78
2021/01/15 01:56:53;;;;;;;14.80;6.50;;;;;;;;;;5100496;28;20233;-78
2021/01/15 01:59:57;;;;;;;13.80;6.30;;;;;;;;;;5100347;28;20335;-78
2021/01/15 02:03:02;;;;;;;13.83;6.70;;;;;;;;;;5117933;28;20221;-77
2021/01/15 02:06:07;;;;;;;19.63;6.63;;;;;;;;;;5122040;28;20208;-77
2021/01/15 02:09:11;;;;;;;14.00;5.90;;;;;;;;;;5123273;28;20238;-78
2021/01/15 02:12:20;;;;;;;17.03;6.97;;;;;;;;;;5115183;28;20411;-79
2021/01/15 02:15:29;;;;;;;16.87;7.80;;;;;;;;;;5103638;28;20250;-79
2021/01/15 02:18:36;;;;;;;21.83;8.93;;;;;;;;;;5103390;28;20277;-78
2021/01/15 02:22:00;;;;;;;19.70;7.60;;;;;;;;;;5102873;28;20663;-79
2021/01/15 02:25:32;;;;;;;22.57;9.20;;;;;;;;;;5102845;28;20582;-79
2021/01/15 02:28:46;;;;;;;20.73;9.10;;;;;;;;;;5102839;28;20575;-78
2021/01/15 02:32:09;;;;;;;20.57;8.27;;;;;;;;;;5103003;28;20255;-78
2021/01/15 02:35:19;;;;;;;23.40;9.60;;;;;;;;;;5102822;28;20677;-78
2021/01/15 02:38:27;;;;;;;26.13;10.50;;;;;;;;;;5102529;28;20193;-77
2021/01/15 02:41:32;;;;;;;27.20;11.07;;;;;;;;;;5102863;28;20216;-78
2021/01/15 02:44:38;;;;;;;21.47;9.33;;;;;;;;;;5115183;28;20221;-78
2021/01/15 02:47:47;;;;;;;26.00;10.13;;;;;;;;;;5102747;28;20204;-78
2021/01/15 02:50:54;;;;;;;25.47;10.40;;;;;;;;;;5115305;28;20294;-78
2021/01/15 02:53:58;;;;;;;28.80;11.60;;;;;;;;;;5102289;28;20250;-78
2021/01/15 02:57:03;;;;;;;24.90;10.97;;;;;;;;;;5115254;28;20690;-78
2021/01/15 03:00:09;;;;;;;25.63;11.40;;;;;;;;;;5102246;28;20611;-78
2021/01/15 03:03:18;;;;;;;26.47;11.10;;;;;;;;;;5101938;28;20209;-78
2021/01/15 03:06:30;;;;;;;25.53;11.33;;;;;;;;;;5112844;28;20216;-78
2021/01/15 03:09:37;;;;;;;24.27;10.67;;;;;;;;;;5099828;28;20212;-78
2021/01/15 03:12:44;;;;;;;23.17;10.33;;;;;;;;;;5100805;28;20320;-78
2021/01/15 03:15:48;;;;;;;21.97;10.20;;;;;;;;;;5101949;28;20590;-78
2021/01/15 03:18:54;;;;;;;24.67;9.93;;;;;;;;;;5100929;28;20209;-78
2021/01/15 03:22:02;;;;;;;24.50;9.87;;;;;;;;;;5114332;28;20270;-78
2021/01/15 03:25:07;;;;;;;25.30;10.23;;;;;;;;;;5101555;28;20201;-78
2021/01/15 03:28:12;;;;;;;22.97;8.97;;;;;;;;;;5101989;28;20217;-79
2021/01/15 03:31:17;;;;;;;21.40;8.87;;;;;;;;;;5101753;28;20293;-78
2021/01/15 03:34:22;;;;;;;19.60;8.87;;;;;;;;;;5101914;28;20213;-78
2021/01/15 03:37:27;;;;;;;22.73;10.20;;;;;;;;;;5107091;28;20220;-78
2021/01/15 03:40:33;;;;;;;19.50;8.53;;;;;;;;;;5103618;28;20254;-78
2021/01/15 03:43:37;;;;;;;25.53;10.23;;;;;;;;;;5102578;28;20331;-78
2021/01/15 03:46:42;;;;;;;22.23;9.20;;;;;;;;;;5106338;28;20329;-78
2021/01/15 03:49:46;;;;;;;28.10;10.40;;;;;;;;;;5104107;28;20201;-79
2021/01/15 03:52:52;;;;;;;25.23;10.53;;;;;;;;;;5114315;28;20765;-79
2021/01/15 03:55:56;;;;;;;25.70;10.93;;;;;;;;;;5101689;28;20184;-79
2021/01/15 03:59:01;;;;;;;30.53;10.83;;;;;;;;;;5101417;28;20268;-79
2021/01/15 04:02:06;;;;;;;23.03;8.93;;;;;;;;;;5113958;28;20290;-79
2021/01/15 04:05:11;;;;;;;22.83;9.27;;;;;;;;;;5101443;28;20213;-79
2021/01/15 04:08:16;;;;;;;23.00;9.23;;;;;;;;;;5101020;28;20201;-78
2021/01/15 04:11:21;;;;;;;24.77;9.90;;;;;;;;;;5100993;28;20229;-78
2021/01/15 04:14:25;;;;;;;22.00;9.43;;;;;;;;;;5100504;28;20229;-79
2021/01/15 04:17:30;;;;;;;27.43;10.13;;;;;;;;;;5101185;28;20251;-80
2021/01/15 04:20:34;;;;;;;21.40;9.37;;;;;;;;;;5100622;28;20220;-75
2021/01/15 04:23:40;;;;;;;29.33;10.57;;;;;;;;;;5100859;28;20211;-79
2021/01/15 04:26:44;;;;;;;40.23;13.00;;;;;;;;;;5100846;28;20213;-79
2021/01/15 04:29:49;;;;;;;24.83;9.70;;;;;;;;;;5101139;28;20193;-76
2021/01/15 04:32:54;;;;;;;26.43;10.03;;;;;;;;;;5100249;28;20221;-75
2021/01/15 04:35:58;;;;;;;26.57;10.00;;;;;;;;;;5100828;28;20197;-75
2021/01/15 04:39:05;;;;;;;28.60;11.33;;;;;;;;;;5100214;28;20238;-74
2021/01/15 04:42:10;;;;;;;31.10;11.67;;;;;;;;;;5099983;28;20286;-75
2021/01/15 04:45:15;;;;;;;29.30;12.17;;;;;;;;;;5100081;28;20706;-75
2021/01/15 04:48:22;;;;;;;27.23;10.97;;;;;;;;;;5099819;28;20193;-75
2021/01/15 04:51:27;;;;;;;30.90;10.87;;;;;;;;;;5099922;28;20270;-74
2021/01/15 04:54:37;;;;;;;34.83;11.43;;;;;;;;;;5099589;28;20243;-75
2021/01/15 04:57:43;;;;;;;28.13;10.57;;;;;;;;;;5100428;28;20299;-79
2021/01/15 05:00:48;;;;;;;28.10;9.73;;;;;;;;;;5100399;28;20254;-75
2021/01/15 05:03:53;;;;;;;24.30;9.30;;;;;;;;;;5099882;28;20197;-79
2021/01/15 05:06:58;;;;;;;27.30;10.37;;;;;;;;;;5099923;28;20200;-78
2021/01/15 05:10:10;;;;;;;21.90;9.60;;;;;;;;;;5100430;28;20212;-79
2021/01/15 05:13:15;;;;;;;23.07;10.20;;;;;;;;;;5099982;28;20250;-78
2021/01/15 05:16:20;;;;;;;22.70;9.47;;;;;;;;;;5100190;28;20209;-78
2021/01/15 05:19:24;;;;;;;22.83;9.50;;;;;;;;;;5100439;28;20791;-79
2021/01/15 05:22:29;;;;;;;23.40;9.43;;;;;;;;;;5100277;28;20229;-78
2021/01/15 05:25:35;;;;;;;21.57;8.60;;;;;;;;;;5106596;28;20274;-79
2021/01/15 05:28:42;;;;;;;26.67;10.23;;;;;;;;;;5100253;28;20230;-79
2021/01/15 05:31:50;;;;;;;23.90;9.53;;;;;;;;;;5099914;28;20262;-78
2021/01/15 05:34:55;;;;;;;22.20;9.97;;;;;;;;;;5112644;28;20208;-79
2021/01/15 05:38:00;;;;;;;22.83;9.83;;;;;;;;;;5099821;28;20242;-78
2021/01/15 05:41:06;;;;;;;32.50;11.23;;;;;;;;;;5101240;28;20242;-78
2021/01/15 05:44:11;;;;;;;25.73;10.20;;;;;;;;;;5103828;28;20196;-79
2021/01/15 05:47:15;;;;;;;19.87;9.27;;;;;;;;;;5104020;28;20205;-79
2021/01/15 05:50:20;;;;;;;28.80;10.20;;;;;;;;;;5103855;28;20204;-78
2021/01/15 05:53:25;;;;;;;25.80;9.37;;;;;;;;;;5104011;28;20661;-79
2021/01/15 05:56:38;;;;;;;24.13;9.80;;;;;;;;;;5103594;28;20228;-78
2021/01/15 05:59:43;;;;;;;24.03;10.00;;;;;;;;;;5104189;28;20224;-78
2021/01/15 06:02:52;;;;;;;23.40;9.97;;;;;;;;;;5130661;28;20236;-78
2021/01/15 06:05:57;;;;;;;25.43;10.60;;;;;;;;;;5121212;28;20216;-79
2021/01/15 06:09:03;;;;;;;27.70;10.43;;;;;;;;;;5121881;28;20265;-79
2021/01/15 06:12:10;;;;;;;25.23;10.13;;;;;;;;;;5118731;28;20244;-78
2021/01/15 06:15:15;;;;;;;25.90;10.87;;;;;;;;;;5103893;28;20207;-79
2021/01/15 06:18:20;;;;;;;23.53;9.67;;;;;;;;;;5103720;28;20213;-79
2021/01/15 06:21:29;;;;;;;27.27;10.93;;;;;;;;;;5103420;28;20247;-79
2021/01/15 06:24:35;;;;;;;24.33;9.93;;;;;;;;;;5104129;28;20715;-79
2021/01/15 06:27:41;;;;;;;23.93;9.93;;;;;;;;;;5104053;28;20200;-79
2021/01/15 06:30:58;;;;;;;22.97;9.60;;;;;;;;;;5103302;28;20197;-79
2021/01/15 06:34:03;;;;;;;25.33;9.73;;;;;;;;;;5092888;28;20208;-79
2021/01/15 06:37:07;;;;;;;22.87;9.97;;;;;;;;;;5097133;28;20336;-75
2021/01/15 06:40:13;;;;;;;28.07;9.50;;;;;;;;;;5093812;28;20208;-75
2021/01/15 06:43:22;;;;;;;25.83;10.10;;;;;;;;;;5097574;28;20245;-75
2021/01/15 06:46:33;;;;;;;30.87;11.33;;;;;;;;;;5102819;28;20205;-78
2021/01/15 06:49:39;;;;;;;22.97;9.93;;;;;;;;;;5103000;28;20211;-78
2021/01/15 06:52:47;;;;;;;24.47;10.20;;;;;;;;;;5086028;28;20230;-79
2021/01/15 06:55:53;;;;;;;21.57;9.27;;;;;;;;;;5084141;28;20192;-79
2021/01/15 06:59:05;;;;;;;23.77;9.97;;;;;;;;;;5102541;28;20185;-76
2021/01/15 07:02:11;;;;;;;22.20;9.70;;;;;;;;;;5111868;28;20262;-76
2021/01/15 07:05:16;;;;;;;21.83;9.77;;;;;;;;;;5103825;28;20216;-76
2021/01/15 07:08:21;;;;;;;26.03;10.10;;;;;;;;;;5114677;28;20239;-78
2021/01/15 07:11:26;;;;;;;26.57;9.73;;;;;;;;;;5094251;28;20295;-78
2021/01/15 07:14:43;;;;;;;19.93;8.97;;;;;;;;;;5092258;28;20605;-79
2021/01/15 07:17:48;;;;;;;43.87;13.17;;;;;;;;;;5103880;28;20197;-79
2021/01/15 07:20:57;;;;;;;25.60;10.67;;;;;;;;;;5087878;28;20213;-80
2021/01/15 07:24:03;;;;;;;25.00;9.87;;;;;;;;;;5093846;28;20716;-75
2021/01/15 07:27:10;;;;;;;22.73;9.83;;;;;;;;;;5100800;28;20209;-75
2021/01/15 07:30:20;;;;;;;25.70;10.77;;;;;;;;;;5103468;28;20217;-80
2021/01/15 07:33:25;;;;;;;24.10;10.60;;;;;;;;;;5107073;28;20221;-80
2021/01/15 07:36:39;;;;;;;23.80;10.10;;;;;;;;;;5107113;28;20208;-76
2021/01/15 07:39:59;;;;;;;30.83;11.17;;;;;;;;;;5108697;28;20243;-76
2021/01/15 07:43:04;;;;;;;28.00;11.03;;;;;;;;;;5110266;28;20269;-76
2021/01/15 07:46:11;;;;;;;23.27;10.13;;;;;;;;;;5104396;28;20220;-79
2021/01/15 07:49:17;;;;;;;26.07;10.57;;;;;;;;;;5105175;28;20192;-80
2021/01/15 07:52:22;;;;;;;24.10;10.27;;;;;;;;;;5101349;28;20217;-77
2021/01/15 07:55:27;;;;;;;35.00;15.87;;;;;;;;;;5104983;28;20688;-76
2021/01/15 07:58:45;;;;;;;28.47;12.63;;;;;;;;;;5109442;28;20855;-79
2021/01/15 08:01:51;;;;;;;22.87;10.10;;;;;;;;;;5108092;28;20232;-77
2021/01/15 08:05:04;;;;;;;34.57;13.83;;;;;;;;;;5109772;28;20205;-77
2021/01/15 08:08:09;;;;;;;29.73;12.23;;;;;;;;;;5104557;28;20230;-77
2021/01/15 08:11:14;;;;;;;32.43;12.07;;;;;;;;;;5108872;28;20281;-76
2021/01/15 08:14:20;;;;;;;36.73;12.57;;;;;;;;;;5105782;28;20345;-80
2021/01/15 08:17:30;;;;;;;28.33;11.30;;;;;;;;;;5104247;28;20193;-76
2021/01/15 08:20:35;;;;;;;30.63;11.83;;;;;;;;;;5104167;28;20281;-80
2021/01/15 08:23:40;;;;;;;29.20;12.50;;;;;;;;;;5099224;28;20185;-80
2021/01/15 08:26:50;;;;;;;30.30;14.17;;;;;;;;;;5101556;28;20225;-77
2021/01/15 08:30:04;;;;;;;35.17;14.07;;;;;;;;;;5101193;28;20205;-77
2021/01/15 08:33:13;;;;;;;29.73;13.13;;;;;;;;;;5105624;28;20232;-77
2021/01/15 08:36:18;;;;;;;33.13;13.00;;;;;;;;;;5097885;28;20556;-76
2021/01/15 08:39:23;;;;;;;31.27;12.43;;;;;;;;;;5109359;28;20246;-80
2021/01/15 08:42:32;;;;;;;27.37;11.57;;;;;;;;;;5101005;28;20616;-76
2021/01/15 08:45:36;;;;;;;33.47;12.50;;;;;;;;;;5099605;28;20245;-77
2021/01/15 08:48:41;;;;;;;33.10;14.30;;;;;;;;;;5097888;28;20217;-77
2021/01/15 08:51:49;;;;;;;31.10;12.80;;;;;;;;;;5109495;28;20224;-79
2021/01/15 08:54:54;;;;;;;34.80;13.37;;;;;;;;;;5101059;28;20225;-80
2021/01/15 08:58:05;;;;;;;30.03;12.13;;;;;;;;;;5099947;28;20676;-76
2021/01/15 09:01:24;;;;;;;29.47;13.67;;;;;;;;;;5103583;28;20265;-77
2021/01/15 09:04:30;;;;;;;37.30;13.93;;;;;;;;;;5094762;28;20894;-80
2021/01/15 09:07:41;;;;;;;33.63;14.33;;;;;;;;;;5104288;28;20232;-79
2021/01/15 09:10:49;;;;;;;62.70;29.07;;;;;;;;;;5107070;28;20629;-80
2021/01/15 09:13:54;;;;;;;36.07;15.47;;;;;;;;;;5098864;28;20255;-76
2021/01/15 09:17:00;;;;;;;41.73;17.07;;;;;;;;;;5100551;28;20197;-76
2021/01/15 09:20:06;;;;;;;51.80;19.57;;;;;;;;;;5099020;28;20213;-77
2021/01/15 09:23:12;;;;;;;51.27;20.93;;;;;;;;;;5104933;28;20582;-80
2021/01/15 09:26:18;;;;;;;35.60;15.20;;;;;;;;;;5098646;28;20197;-80
2021/01/15 09:29:24;;;;;;;28.43;12.80;;;;;;;;;;5117017;28;20247;-81
2021/01/15 09:32:29;;;;;;;33.13;14.47;;;;;;;;;;5099871;28;20264;-81
2021/01/15 09:35:35;;;;;;;36.57;13.80;;;;;;;;;;5105375;28;20581;-79
2021/01/15 09:38:40;;;;;;;37.60;14.00;;;;;;;;;;5098020;28;20224;-79
2021/01/15 09:41:45;;;;;;;32.10;13.40;;;;;;;;;;5103987;28;20339;-77
2021/01/15 09:44:50;;;;;;;26.77;12.70;;;;;;;;;;5101011;28;20216;-76
2021/01/15 09:47:55;;;;;;;30.43;13.53;;;;;;;;;;5113334;28;20223;-76
2021/01/15 09:51:02;;;;;;;25.43;12.40;;;;;;;;;;5122281;28;20803;-79
2021/01/15 09:54:07;;;;;;;32.07;12.57;;;;;;;;;;5119270;28;20236;-80
2021/01/15 09:57:12;;;;;;;28.03;12.47;;;;;;;;;;5105073;28;20212;-79
2021/01/15 10:00:17;;;;;;;32.70;13.30;;;;;;;;;;5109158;28;20696;-79
2021/01/15 10:03:22;;;;;;;27.90;11.53;;;;;;;;;;5100898;28;20216;-79
2021/01/15 10:06:28;;;;;;;27.83;12.10;;;;;;;;;;5103410;28;20213;-79
2021/01/15 10:09:33;;;;;;;29.97;12.30;;;;;;;;;;5103436;28;20263;-75
2021/01/15 10:12:39;;;;;;;30.07;13.30;;;;;;;;;;5101523;28;20228;-80
2021/01/15 10:15:43;;;;;;;30.13;14.17;;;;;;;;;;5102624;28;20293;-81
2021/01/15 10:18:48;;;;;;;28.40;13.13;;;;;;;;;;5099887;28;20225;-79
2021/01/15 10:21:54;;;;;;;32.90;13.87;;;;;;;;;;5104061;28;20228;-76
2021/01/15 10:25:01;;;;;;;33.97;13.30;;;;;;;;;;5105152;28;20241;-77
2021/01/15 10:28:06;;;;;;;26.97;11.40;;;;;;;;;;5105869;28;20192;-77
2021/01/15 10:31:11;;;;;;;22.23;11.37;;;;;;;;;;5104715;28;20224;-76
2021/01/15 10:34:16;;;;;;;25.70;11.13;;;;;;;;;;5109385;28;20223;-76
2021/01/15 10:37:22;;;;;;;24.60;11.13;;;;;;;;;;5107440;28;20212;-75
2021/01/15 10:40:27;;;;;;;26.07;10.27;;;;;;;;;;5106698;28;20204;-75
2021/01/15 10:43:32;;;;;;;22.93;10.97;;;;;;;;;;5115827;28;20586;-75
2021/01/15 10:46:38;;;;;;;23.57;11.10;;;;;;;;;;5109666;28;20220;-79
2021/01/15 10:49:43;;;;;;;24.73;10.63;;;;;;;;;;5095974;28;20637;-79
2021/01/15 10:52:55;;;;;;;27.83;10.20;;;;;;;;;;5105667;28;20316;-80
2021/01/15 10:55:59;;;;;;;27.47;10.33;;;;;;;;;;5105299;28;20287;-80
2021/01/15 10:59:05;;;;;;;20.87;10.43;;;;;;;;;;5106614;28;20227;-79
2021/01/15 11:02:10;;;;;;;23.13;11.00;;;;;;;;;;5103168;28;20232;-76
2021/01/15 11:05:15;;;;;;;27.30;11.73;;;;;;;;;;5110629;28;20220;-76
2021/01/15 11:08:21;;;;;;;23.57;11.70;;;;;;;;;;5120982;28;20227;-79
2021/01/15 11:11:25;;;;;;;24.90;10.83;;;;;;;;;;5099236;28;20275;-76
2021/01/15 11:14:30;;;;;;;27.73;11.67;;;;;;;;;;5102877;28;20193;-77
2021/01/15 11:17:37;;;;;;;23.97;11.07;;;;;;;;;;5110685;28;20205;-76
2021/01/15 11:20:44;;;;;;;22.87;11.00;;;;;;;;;;5100932;28;20321;-76
2021/01/15 11:23:49;;;;;;;25.23;11.33;;;;;;;;;;5104444;28;20250;-76
2021/01/15 11:26:54;;;;;;;23.30;10.97;;;;;;;;;;5107586;28;20201;-80
2021/01/15 11:29:59;;;;;;;29.83;14.03;;;;;;;;;;5102011;28;20623;-79
2021/01/15 11:33:04;;;;;;;29.00;13.20;;;;;;;;;;5107870;28;20283;-79
2021/01/15 11:36:10;;;;;;;23.73;11.47;;;;;;;;;;5102125;28;20676;-80
2021/01/15 11:39:16;;;;;;;26.43;11.90;;;;;;;;;;5097863;28;20204;-79
2021/01/15 11:42:20;;;;;;;29.13;12.47;;;;;;;;;;5103990;28;20232;-81
2021/01/15 11:45:25;;;;;;;34.47;12.43;;;;;;;;;;5108395;28;20648;-79
2021/01/15 11:48:30;;;;;;;25.40;11.87;;;;;;;;;;5098561;28;20204;-79
2021/01/15 11:51:34;;;;;;;22.47;11.07;;;;;;;;;;5100644;28;20274;-80
2021/01/15 11:54:39;;;;;;;26.33;11.90;;;;;;;;;;5102711;28;20216;-79
2021/01/15 11:57:44;;;;;;;27.13;12.90;;;;;;;;;;5101481;28;20244;-80
2021/01/15 12:00:49;;;;;;;24.10;12.43;;;;;;;;;;5110836;28;20205;-75
2021/01/15 12:03:54;;;;;;;25.13;11.70;;;;;;;;;;5105736;28;20209;-75
2021/01/15 12:06:59;;;;;;;26.07;11.93;;;;;;;;;;5118866;27;20212;-79
2021/01/15 12:10:05;;;;;;;26.50;12.17;;;;;;;;;;5112149;28;20398;-75
2021/01/15 12:13:10;;;;;;;30.40;13.47;;;;;;;;;;5107747;28;20270;-76
2021/01/15 12:16:14;;;;;;;26.87;11.97;;;;;;;;;;5104654;28;20250;-76
2021/01/15 12:19:19;;;;;;;26.40;12.90;;;;;;;;;;5102509;28;20219;-77
2021/01/15 12:22:24;;;;;;;25.30;12.50;;;;;;;;;;5108523;28;20273;-80
2021/01/15 12:25:30;;;;;;;25.03;12.30;;;;;;;;;;5110899;28;20232;-76
2021/01/15 12:28:35;;;;;;;27.93;12.80;;;;;;;;;;5113055;28;20228;-81
2021/01/15 12:31:40;;;;;;;32.30;14.07;;;;;;;;;;5111827;28;20232;-76
2021/01/15 12:34:44;;;;;;;32.90;13.00;;;;;;;;;;5126642;28;20250;-80
2021/01/15 12:37:59;;;;;;;25.73;12.57;;;;;;;;;;5107374;28;20266;-81
2021/01/15 12:41:05;;;;;;;27.53;13.00;;;;;;;;;;5112887;28;20236;-80
2021/01/15 12:44:11;;;;;;;32.07;13.30;;;;;;;;;;5113908;28;20208;-76
2021/01/15 12:47:16;;;;;;;33.07;14.07;;;;;;;;;;5105504;28;20286;-80
2021/01/15 12:50:20;;;;;;;32.77;13.77;;;;;;;;;;5111791;28;20192;-80
2021/01/15 12:53:25;;;;;;;31.67;14.20;;;;;;;;;;5102657;28;20205;-76
2021/01/15 12:56:36;;;;;;;46.17;17.27;;;;;;;;;;5102075;28;20196;-76
2021/01/15 12:59:42;;;;;;;43.40;17.37;;;;;;;;;;5087053;28;20245;-80
2021/01/15 13:02:46;;;;;;;27.43;13.20;;;;;;;;;;5097044;28;20232;-79
2021/01/15 13:05:55;;;;;;;28.37;13.70;;;;;;;;;;5094323;28;20266;-79
2021/01/15 13:09:03;;;;;;;25.33;12.37;;;;;;;;;;5095817;28;20598;-79
2021/01/15 13:12:10;;;;;;;25.03;12.40;;;;;;;;;;5100223;28;20323;-76
2021/01/15 13:15:15;;;;;;;23.73;11.90;;;;;;;;;;5111359;28;20209;-76
2021/01/15 13:18:21;;;;;;;23.97;11.47;;;;;;;;;;5099167;28;20293;-76
2021/01/15 13:21:26;;;;;;;30.03;12.30;;;;;;;;;;5102133;28;20252;-80
2021/01/15 13:24:31;;;;;;;24.50;11.33;;;;;;;;;;5100958;28;20240;-80
2021/01/15 13:27:41;;;;;;;23.97;11.13;;;;;;;;;;5101735;28;20205;-80
2021/01/15 13:30:46;;;;;;;20.83;10.90;;;;;;;;;;5109533;28;20205;-80
2021/01/15 13:33:51;;;;;;;28.67;11.87;;;;;;;;;;5097104;28;20283;-80
2021/01/15 13:36:58;;;;;;;23.07;10.97;;;;;;;;;;5105783;28;20251;-80
2021/01/15 13:40:03;;;;;;;25.63;12.70;;;;;;;;;;5098560;28;20323;-80
2021/01/15 13:43:08;;;;;;;27.63;12.60;;;;;;;;;;5099575;28;20229;-80
2021/01/15 13:46:12;;;;;;;26.97;12.60;;;;;;;;;;5097571;28;20209;-79
2021/01/15 13:49:17;;;;;;;27.20;11.70;;;;;;;;;;5095959;28;20672;-79
2021/01/15 13:52:22;;;;;;;27.20;12.50;;;;;;;;;;5101795;28;20239;-79
2021/01/15 13:55:29;;;;;;;28.87;13.70;;;;;;;;;;5095766;28;20741;-79
2021/01/15 13:58:34;;;;;;;29.17;13.80;;;;;;;;;;5096696;28;20224;-79
2021/01/15 14:01:39;;;;;;;32.43;14.80;;;;;;;;;;5091677;28;20240;-75
2021/01/15 14:04:43;;;;;;;27.73;13.43;;;;;;;;;;5103291;28;20286;-74
2021/01/15 14:07:48;;;;;;;33.43;14.30;;;;;;;;;;5105631;28;20228;-78
2021/01/15 14:10:52;;;;;;;32.57;13.67;;;;;;;;;;5108699;28;20312;-79
2021/01/15 14:13:58;;;;;;;29.27;13.50;;;;;;;;;;5099873;28;20220;-80
2021/01/15 14:17:03;;;;;;;23.43;10.93;;;;;;;;;;5097993;28;20197;-79
2021/01/15 14:20:09;;;;;;;23.47;10.70;;;;;;;;;;5105827;28;20679;-80
2021/01/15 14:23:14;;;;;;;23.33;11.27;;;;;;;;;;5103132;28;20208;-82
2021/01/15 14:26:20;;;;;;;23.63;11.97;;;;;;;;;;5107431;28;20200;-80
2021/01/15 14:29:26;;;;;;;26.43;12.27;;;;;;;;;;5104008;27;20292;-79
2021/01/15 14:32:30;;;;;;;26.17;11.90;;;;;;;;;;5108268;27;20217;-80
2021/01/15 14:35:36;;;;;;;55.00;18.73;;;;;;;;;;5115460;28;20201;-79
2021/01/15 14:38:42;;;;;;;26.23;12.57;;;;;;;;;;5115888;27;20208;-79
2021/01/15 14:41:48;;;;;;;25.90;11.73;;;;;;;;;;5129784;27;20239;-79
2021/01/15 14:44:54;;;;;;;27.27;12.27;;;;;;;;;;5118956;28;20240;-80
2021/01/15 14:48:03;;;;;;;30.77;12.17;;;;;;;;;;5102851;28;20216;-80
2021/01/15 14:51:10;;;;;;;26.37;12.47;;;;;;;;;;5105095;28;20296;-81
2021/01/15 14:54:15;;;;;;;28.50;12.43;;;;;;;;;;5105062;27;20246;-78
2021/01/15 14:57:19;;;;;;;64.97;31.13;;;;;;;;;;5112616;28;20195;-80
2021/01/15 15:00:26;;;;;;;39.27;18.87;;;;;;;;;;5124580;28;20205;-77
2021/01/15 15:03:31;;;;;;;29.30;13.50;;;;;;;;;;5106188;28;20246;-77
2021/01/15 15:06:36;;;;;;;29.87;13.93;;;;;;;;;;5108921;28;20224;-77
2021/01/15 15:09:41;;;;;;;31.70;13.93;;;;;;;;;;5105903;28;20204;-76
2021/01/15 15:12:49;;;;;;;33.93;15.77;;;;;;;;;;5103872;28;20240;-77
2021/01/15 15:15:55;;;;;;;42.10;18.87;;;;;;;;;;5110470;28;20213;-81
2021/01/15 15:19:00;;;;;;;50.20;20.70;;;;;;;;;;5095751;28;20251;-77
2021/01/15 15:22:05;;;;;;;47.70;19.37;;;;;;;;;;5114214;28;20260;-76
2021/01/15 15:25:11;;;;;;;49.70;20.67;;;;;;;;;;5102286;28;20193;-76
2021/01/15 15:28:16;;;;;;;50.13;20.03;;;;;;;;;;5102802;28;20254;-76
2021/01/15 15:31:21;;;;;;;45.23;17.03;;;;;;;;;;5088916;28;20274;-75
2021/01/15 15:34:26;;;;;;;44.27;18.10;;;;;;;;;;5111725;27;20238;-80
2021/01/15 15:37:31;;;;;;;47.70;18.67;;;;;;;;;;5089816;27;20668;-76
2021/01/15 15:40:35;;;;;;;42.37;17.70;;;;;;;;;;5101289;27;20201;-79
2021/01/15 15:43:40;;;;;;;45.40;18.30;;;;;;;;;;5098595;28;20217;-77
2021/01/15 15:46:45;;;;;;;47.00;18.13;;;;;;;;;;5094487;28;20217;-79
2021/01/15 15:49:50;;;;;;;40.97;16.97;;;;;;;;;;5095916;28;20303;-76
2021/01/15 15:52:55;;;;;;;46.97;19.10;;;;;;;;;;5099640;28;20248;-76
2021/01/15 15:56:00;;;;;;;46.20;19.27;;;;;;;;;;5098874;28;20216;-77
2021/01/15 15:59:05;;;;;;;46.07;19.00;;;;;;;;;;5089278;28;20224;-79
2021/01/15 16:02:11;;;;;;;48.43;19.20;;;;;;;;;;5087176;28;20229;-78
2021/01/15 16:05:15;;;;;;;40.40;17.50;;;;;;;;;;5080808;28;20186;-76
2021/01/15 16:08:21;;;;;;;48.23;19.80;;;;;;;;;;5097317;28;20240;-77
2021/01/15 16:11:26;;;;;;;60.93;19.87;;;;;;;;;;5090019;28;20229;-78
2021/01/15 16:14:32;;;;;;;42.70;18.33;;;;;;;;;;5085765;28;20576;-79
2021/01/15 16:17:38;;;;;;;51.97;20.43;;;;;;;;;;5095291;28;20201;-79
2021/01/15 16:20:42;;;;;;;47.37;19.47;;;;;;;;;;5084707;28;20201;-76
2021/01/15 16:23:47;;;;;;;55.97;23.47;;;;;;;;;;5081906;28;20677;-76
2021/01/15 16:26:53;;;;;;;49.60;21.47;;;;;;;;;;5098068;28;20254;-79
2021/01/15 16:29:58;;;;;;;49.53;22.53;;;;;;;;;;5096459;28;20225;-78
2021/01/15 16:33:04;;;;;;;50.60;20.67;;;;;;;;;;5113309;28;20267;-76
2021/01/15 16:36:08;;;;;;;46.07;19.20;;;;;;;;;;5102247;27;20278;-76
2021/01/15 16:39:13;;;;;;;47.63;19.70;;;;;;;;;;5095255;28;20247;-75
2021/01/15 16:42:18;;;;;;;48.17;18.63;;;;;;;;;;5090428;28;20225;-76
2021/01/15 16:45:23;;;;;;;53.57;21.00;;;;;;;;;;5094294;28;20266;-77
2021/01/15 16:48:30;;;;;;;53.60;21.00;;;;;;;;;;5081132;28;20574;-78
2021/01/15 16:51:34;;;;;;;59.63;22.17;;;;;;;;;;5100462;28;20278;-74
2021/01/15 16:54:39;;;;;;;64.67;25.17;;;;;;;;;;5080852;28;20233;-78
2021/01/15 16:57:43;;;;;;;69.27;25.80;;;;;;;;;;5096733;28;20575;-78
2021/01/15 17:00:48;;;;;;;71.93;24.63;;;;;;;;;;5100403;28;20644;-78
2021/01/15 17:03:53;;;;;;;76.37;27.13;;;;;;;;;;5091359;28;20677;-75
2021/01/15 17:06:58;;;;;;;73.93;26.97;;;;;;;;;;5096749;28;20209;-77
2021/01/15 17:10:03;;;;;;;67.20;27.53;;;;;;;;;;5086535;28;20733;-77
2021/01/15 17:13:11;;;;;;;67.20;25.40;;;;;;;;;;5080984;28;20221;-77
2021/01/15 17:16:19;;;;;;;64.73;25.63;;;;;;;;;;5096245;28;20221;-76
2021/01/15 17:19:25;;;;;;;60.90;24.57;;;;;;;;;;5101921;28;20242;-77
2021/01/15 17:22:30;;;;;;;59.40;22.00;;;;;;;;;;5085928;28;20217;-76
2021/01/15 17:25:35;;;;;;;64.23;25.27;;;;;;;;;;5094784;28;20633;-79
2021/01/15 17:28:40;;;;;;;53.30;20.97;;;;;;;;;;5093941;28;20693;-77
2021/01/15 17:31:46;;;;;;;61.03;23.03;;;;;;;;;;5102690;28;20739;-78
2021/01/15 17:34:56;;;;;;;55.03;22.60;;;;;;;;;;5098042;28;20240;-77
2021/01/15 17:38:05;;;;;;;48.43;20.13;;;;;;;;;;5103540;28;20200;-77
2021/01/15 17:41:10;;;;;;;53.03;22.40;;;;;;;;;;5098886;28;20240;-76
2021/01/15 17:44:15;;;;;;;60.40;24.07;;;;;;;;;;5103631;28;20262;-78
2021/01/15 17:47:19;;;;;;;82.90;29.53;;;;;;;;;;5087912;28;20217;-76
2021/01/15 17:50:25;;;;;;;78.93;28.17;;;;;;;;;;5098095;28;20247;-77
2021/01/15 17:53:30;;;;;;;63.70;25.37;;;;;;;;;;5100657;28;20217;-77
2021/01/15 17:56:35;;;;;;;54.50;22.27;;;;;;;;;;5098436;28;20730;-76
2021/01/15 17:59:39;;;;;;;53.33;21.33;;;;;;;;;;5101269;28;20236;-75
2021/01/15 18:02:44;;;;;;;60.03;25.43;;;;;;;;;;5086649;28;20226;-77
2021/01/15 18:05:50;;;;;;;62.87;23.03;;;;;;;;;;5097476;28;20231;-77
2021/01/15 18:08:55;;;;;;;48.90;21.43;;;;;;;;;;5101590;28;20212;-77